Time;durP1;ratioP1;P1;durP2;ratioP2;P2;SDS_P1;SDS_P2;PMS_P1;PMS_P2;Temp;Humidity;BMP_temperature;BMP_pressure;BME280_temperature;BME280_humidity;BME280_pressure;Samples;Min_cycle;Max_cycle;Signal;HPM_P1;HPM_P2
2021/01/30 00:02:23;;;;;;;15.00;7.70;;;;;;;-0.42;100.00;99553.57;1763102;81;21097;-55
2021/01/30 00:04:51;;;;;;;12.37;6.30;;;;;;;-0.42;100.00;99545.20;1794530;80;21111;-55
2021/01/30 00:07:19;;;;;;;12.23;7.03;;;;;;;-0.41;100.00;99543.47;1763159;81;21054;-54
2021/01/30 00:09:46;;;;;;;10.68;6.45;;;;;;;-0.41;100.00;99541.69;1794722;80;21047;-54
2021/01/30 00:12:13;;;;;;;14.00;8.10;;;;;;;-0.41;100.00;99538.20;1713873;81;21496;-54
2021/01/30 00:14:41;;;;;;;17.00;8.07;;;;;;;-0.39;100.00;99539.91;1763255;81;21197;-55
2021/01/30 00:17:09;;;;;;;11.30;6.92;;;;;;;-0.41;100.00;99537.73;1794521;79;21181;-54
2021/01/30 00:19:37;;;;;;;17.02;7.75;;;;;;;-0.39;100.00;99539.91;1763169;81;21118;-55
2021/01/30 00:22:14;;;;;;;14.68;7.33;;;;;;;-0.40;100.00;99533.36;1794509;79;21130;-55
2021/01/30 00:24:46;;;;;;;12.97;6.80;;;;;;;-0.40;100.00;99534.22;1763176;81;21176;-55
2021/01/30 00:27:16;;;;;;;11.63;6.13;;;;;;;-0.41;100.00;99529.84;1794472;80;21106;-54
2021/01/30 00:29:44;;;;;;;9.63;5.83;;;;;;;-0.46;100.00;99522.43;1763257;81;21070;-54
2021/01/30 00:32:12;;;;;;;16.97;6.17;;;;;;;-0.53;100.00;99528.66;1794591;80;21189;-54
2021/01/30 00:34:40;;;;;;;9.85;5.72;;;;;;;-0.54;100.00;99532.17;1763131;81;21180;-55
2021/01/30 00:37:15;;;;;;;12.50;6.37;;;;;;;-0.51;100.00;99537.41;1795166;79;22242;-54
2021/01/30 00:39:43;;;;;;;11.27;6.00;;;;;;;-0.49;100.00;99530.36;1798331;79;21151;-54
2021/01/30 00:42:13;;;;;;;13.25;6.20;;;;;;;-0.47;100.00;99522.00;1798513;79;21036;-55
2021/01/30 00:44:43;;;;;;;12.67;6.20;;;;;;;-0.45;100.00;99524.17;1798304;79;21012;-55
2021/01/30 00:47:11;;;;;;;12.73;6.42;;;;;;;-0.47;100.00;99528.59;1798516;79;21135;-55
2021/01/30 00:49:40;;;;;;;14.28;6.80;;;;;;;-0.49;100.00;99526.42;1798340;79;21194;-55
2021/01/30 00:52:09;;;;;;;12.33;6.33;;;;;;;-0.53;100.00;99534.77;1798456;79;21772;-55
2021/01/30 00:54:37;;;;;;;16.70;7.78;;;;;;;-0.54;100.00;99534.81;1795896;79;21547;-55
2021/01/30 00:57:06;;;;;;;17.55;8.38;;;;;;;-0.57;100.00;99540.97;1795468;80;21115;-54
2021/01/30 00:59:34;;;;;;;16.12;8.00;;;;;;;-0.58;100.00;99537.44;1795657;80;21595;-54
2021/01/30 01:02:01;;;;;;;16.75;7.60;;;;;;;-0.55;100.00;99538.30;1795482;80;21391;-54
2021/01/30 01:04:31;;;;;;;13.77;7.63;;;;;;;-0.52;100.00;99534.34;1795256;80;21166;-55
2021/01/30 01:06:59;;;;;;;15.13;7.20;;;;;;;-0.49;100.00;99530.36;1795465;80;21068;-54
2021/01/30 01:09:28;;;;;;;16.05;7.65;;;;;;;-0.43;100.00;99528.98;1795538;80;21087;-55
2021/01/30 01:11:56;;;;;;;14.33;7.25;;;;;;;-0.37;100.00;99531.55;1795521;80;21492;-55
2021/01/30 01:14:26;;;;;;;20.68;7.83;;;;;;;-0.30;100.00;99535.89;1795505;80;21362;-54
2021/01/30 01:16:53;;;;;;;13.72;6.78;;;;;;;-0.22;100.00;99541.52;1795388;80;21143;-54
2021/01/30 01:19:22;;;;;;;12.70;7.20;;;;;;;-0.17;100.00;99530.47;1795527;80;20996;-54
2021/01/30 01:21:53;;;;;;;19.90;10.13;;;;;;;-0.13;100.00;99526.05;1795539;80;20945;-54
2021/01/30 01:24:21;;;;;;;26.90;11.03;;;;;;;-0.10;100.00;99515.05;1795640;80;21489;-53
2021/01/30 01:26:49;;;;;;;31.03;8.73;;;;;;;-0.13;100.00;99515.06;1795615;80;21368;-54
2021/01/30 01:29:19;;;;;;;33.38;9.58;;;;;;;-0.15;100.00;99527.38;1795383;80;21143;-54
2021/01/30 01:31:54;;;;;;;22.65;9.58;;;;;;;-0.17;100.00;99529.16;1795569;80;21130;-54
2021/01/30 01:34:27;;;;;;;14.25;7.45;;;;;;;-0.17;100.00;99526.52;1795485;80;21143;-55
2021/01/30 01:36:58;;;;;;;14.80;7.47;;;;;;;-0.18;100.00;99523.46;1795410;80;21107;-55
2021/01/30 01:39:25;;;;;;;15.58;7.92;;;;;;;-0.18;100.00;99510.29;1760535;81;21385;-55
2021/01/30 01:42:12;;;;;;;16.65;8.03;;;;;;;-0.21;100.00;99502.00;1791842;80;21138;-54
2021/01/30 01:44:40;;;;;;;12.58;7.10;;;;;;;-0.24;100.00;99495.88;1760657;81;21196;-53
2021/01/30 01:47:16;;;;;;;13.30;7.63;;;;;;;-0.26;100.00;99513.46;1791783;80;21158;-54
2021/01/30 01:49:44;;;;;;;12.75;7.30;;;;;;;-0.27;100.00;99506.45;1751512;81;21142;-55
2021/01/30 01:52:33;;;;;;;13.88;7.20;;;;;;;-0.25;100.00;99499.41;1791769;80;21263;-55
2021/01/30 01:55:16;;;;;;;14.98;7.33;;;;;;;-0.28;100.00;99499.44;1756396;81;21216;-54
2021/01/30 01:57:49;;;;;;;10.45;6.35;;;;;;;-0.29;100.00;99510.41;1777697;80;21150;-54
2021/01/30 02:00:18;;;;;;;12.45;6.58;;;;;;;-0.29;100.00;99511.72;1755655;81;21090;-54
2021/01/30 02:02:47;;;;;;;12.15;6.50;;;;;;;-0.24;100.00;99500.69;1786939;80;21471;-54
2021/01/30 02:05:24;;;;;;;13.30;7.08;;;;;;;-0.19;100.00;99494.06;1755670;81;21199;-54
2021/01/30 02:08:01;;;;;;;14.87;7.27;;;;;;;-0.11;100.00;99479.05;1909493;74;22101;-55
2021/01/30 02:10:38;;;;;;;12.35;6.90;;;;;;;-0.13;100.00;99479.48;1849379;77;21158;-54
2021/01/30 02:13:12;;;;;;;12.88;7.15;;;;;;;-0.14;100.00;99479.06;1849561;77;21176;-54
2021/01/30 02:15:42;;;;;;;12.40;6.95;;;;;;;-0.13;100.00;99474.22;1849372;77;20933;-54
2021/01/30 02:18:33;;;;;;;15.23;7.78;;;;;;;-0.11;100.00;99479.48;1849391;77;20906;-55
2021/01/30 02:21:29;;;;;;;13.30;7.07;;;;;;;-0.09;100.00;99479.91;1849430;77;21013;-55
2021/01/30 02:24:25;;;;;;;15.05;7.25;;;;;;;-0.06;100.00;99484.25;1844128;77;21483;-54
2021/01/30 02:27:16;;;;;;;15.03;7.42;;;;;;;-0.04;100.00;99475.45;1849306;77;21247;-55
2021/01/30 02:30:03;;;;;;;14.53;6.87;;;;;;;0.03;100.00;99470.09;1849002;77;20952;-54
2021/01/30 02:33:10;;;;;;;14.35;6.80;;;;;;;0.06;100.00;99470.05;1849343;77;21022;-54
2021/01/30 02:36:30;;;;;;;22.73;9.15;;;;;;;0.08;100.00;99466.95;1849346;77;21838;-54
2021/01/30 02:39:16;;;;;;;26.87;11.73;;;;;;;0.08;100.00;99466.52;1822792;77;21028;-60
2021/01/30 02:41:55;;;;;;;14.70;7.78;;;;;;;0.01;100.00;99453.44;1819697;78;21677;-60
2021/01/30 02:44:23;;;;;;;13.08;7.15;;;;;;;-0.02;100.00;99442.04;1819745;78;21141;-59
2021/01/30 02:46:54;;;;;;;15.30;7.75;;;;;;;0.03;100.00;99425.30;1819740;78;21051;-59
2021/01/30 02:49:29;;;;;;;17.80;8.20;;;;;;;0.08;100.00;99416.88;1819807;78;21563;-58
2021/01/30 02:52:06;;;;;;;18.80;9.15;;;;;;;0.15;100.00;99418.55;1819740;78;21464;-60
2021/01/30 02:54:35;;;;;;;16.60;8.10;;;;;;;0.21;100.00;99417.14;1819734;78;21332;-60
2021/01/30 02:57:06;;;;;;;15.58;7.47;;;;;;;0.26;100.00;99417.94;1819762;78;21106;-59
2021/01/30 02:59:34;;;;;;;12.68;6.87;;;;;;;0.31;100.00;99413.05;1819798;78;21106;-59
2021/01/30 03:02:03;;;;;;;22.48;7.83;;;;;;;0.35;100.00;99416.09;1819741;78;21115;-59
2021/01/30 03:04:30;;;;;;;10.43;5.67;;;;;;;0.41;100.00;99421.27;1819764;78;21093;-59
2021/01/30 03:07:23;;;;;;;13.50;6.70;;;;;;;0.45;100.00;99428.23;1814904;77;21654;-59
2021/01/30 03:09:56;;;;;;;16.10;7.80;;;;;;;0.48;100.00;99425.54;1809358;79;21059;-60
2021/01/30 03:12:45;;;;;;;24.07;9.35;;;;;;;0.52;100.00;99418.00;1809263;78;21116;-59
2021/01/30 03:15:23;;;;;;;19.23;7.95;;;;;;;0.55;100.00;99421.94;1809416;79;21115;-60
2021/01/30 03:17:51;;;;;;;20.68;7.90;;;;;;;0.54;100.00;99425.44;1809078;78;21154;-59
2021/01/30 03:20:19;;;;;;;19.80;8.65;;;;;;;0.56;100.00;99426.31;1808917;78;21396;-60
2021/01/30 03:22:46;;;;;;;13.13;6.70;;;;;;;0.59;100.00;99420.56;1808715;79;20941;-60
2021/01/30 03:25:21;;;;;;;12.82;6.80;;;;;;;0.63;100.00;99416.52;1808913;78;20889;-60
2021/01/30 03:27:49;;;;;;;16.50;6.67;;;;;;;0.67;100.00;99412.08;1808784;78;21036;-60
2021/01/30 03:30:17;;;;;;;15.53;7.72;;;;;;;0.69;100.00;99410.28;1808901;78;21040;-61
2021/01/30 03:32:44;;;;;;;12.78;5.87;;;;;;;0.70;100.00;99417.30;1808824;79;21247;-61
2021/01/30 03:35:13;;;;;;;18.00;7.47;;;;;;;0.66;100.00;99412.53;1808859;79;21110;-61
2021/01/30 03:37:43;;;;;;;38.33;7.90;;;;;;;0.65;100.00;99408.13;1821964;77;21575;-61
2021/01/30 03:40:12;;;;;;;18.07;7.05;;;;;;;0.66;100.00;99412.97;1843643;77;21006;-61
2021/01/30 03:42:40;;;;;;;13.05;6.15;;;;;;;0.67;100.00;99412.08;1843755;77;21092;-62
2021/01/30 03:45:12;;;;;;;11.43;5.85;;;;;;;0.67;100.00;99412.96;1843574;77;21366;-62
2021/01/30 03:47:39;;;;;;;22.30;7.80;;;;;;;0.67;100.00;99414.71;1843569;77;21044;-63
2021/01/30 03:50:08;;;;;;;17.25;7.03;;;;;;;0.68;100.00;99408.54;1843594;77;20925;-63
2021/01/30 03:52:36;;;;;;;19.48;8.20;;;;;;;0.69;100.00;99403.69;1843690;77;20922;-63
2021/01/30 03:55:06;;;;;;;29.53;9.77;;;;;;;0.71;100.00;99404.53;1843653;77;21128;-63
2021/01/30 03:57:33;;;;;;;15.80;8.25;;;;;;;0.73;100.00;99404.05;1843761;77;22213;-63
2021/01/30 04:00:03;;;;;;;37.98;9.38;;;;;;;0.75;100.00;99410.17;1843627;77;21167;-62
2021/01/30 04:02:33;;;;;;;15.78;8.13;;;;;;;0.76;100.00;99411.06;1842821;77;21170;-63
2021/01/30 04:05:00;;;;;;;18.60;10.05;;;;;;;0.77;100.00;99413.66;1843624;77;21156;-63
2021/01/30 04:07:28;;;;;;;18.70;10.20;;;;;;;0.80;100.00;99413.63;1846236;76;21135;-64
2021/01/30 04:09:56;;;;;;;17.27;9.13;;;;;;;0.85;100.00;99401.22;1848757;77;21390;-64
2021/01/30 04:12:23;;;;;;;14.33;7.28;;;;;;;0.89;100.00;99392.82;1848621;77;20985;-66
2021/01/30 04:14:51;;;;;;;15.95;6.85;;;;;;;0.94;100.00;99396.67;1848788;77;21403;-65
2021/01/30 04:17:19;;;;;;;15.25;6.12;;;;;;;0.96;100.00;99392.23;1848701;77;20981;-66
2021/01/30 04:19:47;;;;;;;16.82;6.33;;;;;;;0.97;100.00;99393.98;1848756;77;21036;-67
2021/01/30 04:22:15;;;;;;;12.07;6.08;;;;;;;1.01;100.00;99391.73;1848595;77;21352;-67
2021/01/30 04:24:44;;;;;;;16.37;6.45;;;;;;;1.04;100.00;99375.84;1848632;77;20985;-67
2021/01/30 04:27:14;;;;;;;12.55;6.10;;;;;;;1.08;100.00;99381.91;1848519;77;21158;-68
2021/01/30 04:29:42;;;;;;;12.85;5.40;;;;;;;1.10;100.00;99379.67;1848633;77;21111;-67
2021/01/30 04:32:10;;;;;;;9.40;5.25;;;;;;;1.16;100.00;99388.38;1848663;77;21060;-67
2021/01/30 04:34:38;;;;;;;12.15;5.08;;;;;;;1.21;100.00;99393.11;1848687;77;21190;-67
2021/01/30 04:37:05;;;;;;;9.80;4.62;;;;;;;1.25;100.00;99387.76;1845209;77;21130;-66
2021/01/30 04:39:33;;;;;;;9.63;4.60;;;;;;;1.30;100.00;99387.69;1819119;78;20968;-66
2021/01/30 04:42:12;;;;;;;13.13;4.72;;;;;;;1.36;100.00;99388.02;1819144;78;20944;-66
2021/01/30 04:45:05;;;;;;;9.98;5.05;;;;;;;1.41;100.00;99387.48;1819064;78;21043;-64
2021/01/30 04:48:06;;;;;;;10.85;5.83;;;;;;;1.47;100.00;99387.81;1819111;78;21417;-64
2021/01/30 04:50:42;;;;;;;11.12;5.28;;;;;;;1.51;100.00;99388.17;1818996;78;20984;-63
2021/01/30 04:53:54;;;;;;;24.05;7.30;;;;;;;1.52;100.00;99384.16;1818883;78;21071;-63
2021/01/30 04:56:39;;;;;;;56.30;10.03;;;;;;;1.54;100.00;99386.78;1819130;78;21162;-63
2021/01/30 04:59:13;;;;;;;;;;;;;;;1.51;100.00;99382.42;1821805;78;21035;-63
2021/01/30 05:01:56;;;;;;;45.90;8.83;;;;;;;1.50;100.00;99382.47;1819341;78;22500;-62
2021/01/30 05:04:48;;;;;;;38.90;8.73;;;;;;;1.50;100.00;99386.43;1819023;78;21105;-62
2021/01/30 05:07:25;;;;;;;23.55;7.22;;;;;;;1.50;100.00;99370.58;1815810;78;20981;-61
2021/01/30 05:09:57;;;;;;;21.87;5.70;;;;;;;1.50;100.00;99373.22;1808479;78;21004;-61
2021/01/30 05:12:48;;;;;;;12.85;5.97;;;;;;;1.54;100.00;99373.58;1808348;78;21115;-61
2021/01/30 05:15:26;;;;;;;9.60;5.50;;;;;;;1.59;100.00;99371.70;1808234;79;21195;-60
2021/01/30 05:18:00;;;;;;;15.58;6.58;;;;;;;1.65;100.00;99372.89;1808823;79;21126;-60
2021/01/30 05:20:35;;;;;;;19.80;6.30;;;;;;;1.71;100.00;99376.75;1808679;78;20941;-61
2021/01/30 05:23:07;;;;;;;15.35;4.97;;;;;;;1.77;100.00;99377.52;1808834;79;21169;-61
2021/01/30 05:25:35;;;;;;;11.88;5.15;;;;;;;1.83;100.00;99376.06;1808702;79;20973;-61
2021/01/30 05:28:17;;;;;;;10.05;4.62;;;;;;;1.89;100.00;99382.56;1808782;79;22130;-61
2021/01/30 05:31:14;;;;;;;11.78;4.40;;;;;;;1.95;100.00;99385.50;1808725;79;21055;-61
2021/01/30 05:34:06;;;;;;;10.98;4.08;;;;;;;2.01;100.00;99384.06;1808763;79;20980;-62
2021/01/30 05:36:55;;;;;;;8.38;4.83;;;;;;;2.08;100.00;99384.78;1808855;79;21547;-62
2021/01/30 05:39:44;;;;;;;8.00;4.58;;;;;;;2.12;100.00;99377.22;1810428;78;21099;-62
2021/01/30 05:42:20;;;;;;;9.98;4.90;;;;;;;2.18;100.00;99380.16;1810440;79;21383;-61
2021/01/30 05:44:56;;;;;;;10.58;5.40;;;;;;;2.22;100.00;99380.06;1810374;79;20982;-61
2021/01/30 05:47:28;;;;;;;11.85;5.53;;;;;;;2.27;100.00;99388.75;1810379;79;21111;-62
2021/01/30 05:50:31;;;;;;;10.03;5.37;;;;;;;2.31;100.00;99384.27;1810443;79;21100;-63
2021/01/30 05:53:00;;;;;;;7.90;4.67;;;;;;;2.35;100.00;99390.38;1810420;79;21044;-62
2021/01/30 05:55:34;;;;;;;13.80;6.00;;;;;;;2.41;100.00;99395.52;1810434;79;21177;-62
2021/01/30 05:58:12;;;;;;;10.80;5.55;;;;;;;2.46;100.00;99401.56;1810544;79;22020;-63
2021/01/30 06:00:40;;;;;;;13.93;5.72;;;;;;;2.53;100.00;99396.53;1809770;79;21091;-63
2021/01/30 06:03:15;;;;;;;11.57;5.62;;;;;;;2.58;100.00;99392.02;1810521;79;21469;-62
2021/01/30 06:05:49;;;;;;;;;;;;;;;2.62;100.00;99396.77;1813247;79;21096;-62
2021/01/30 06:08:25;;;;;;;11.35;6.12;;;;;;;2.66;100.00;99400.22;1812492;79;21701;-63
2021/01/30 06:11:01;;;;;;;12.37;5.83;;;;;;;2.67;100.00;99390.94;1815170;79;21112;-62
2021/01/30 06:13:59;;;;;;;12.23;5.90;;;;;;;2.75;100.00;99384.10;1873137;76;22737;-62
2021/01/30 06:16:47;;;;;;;13.70;6.80;;;;;;;2.74;100.00;99383.69;1841101;78;20914;-63
2021/01/30 06:19:19;;;;;;;14.78;6.90;;;;;;;2.76;100.00;99379.22;1841165;78;22255;-62
2021/01/30 06:21:49;;;;;;;13.25;6.33;;;;;;;2.82;100.00;99375.13;1841064;78;20941;-62
2021/01/30 06:24:29;;;;;;;11.88;6.45;;;;;;;2.82;100.00;99359.24;1841137;78;20930;-63
2021/01/30 06:26:59;;;;;;;12.33;5.70;;;;;;;2.87;100.00;99357.77;1841199;78;20906;-62
2021/01/30 06:29:43;;;;;;;17.95;6.67;;;;;;;2.92;100.00;99361.64;1841099;78;20898;-62
2021/01/30 06:32:40;;;;;;;15.72;6.30;;;;;;;2.96;100.00;99356.23;1811344;78;22295;-62
2021/01/30 06:35:20;;;;;;;17.48;7.10;;;;;;;3.02;100.00;99344.62;1840644;77;21052;-62
2021/01/30 06:37:55;;;;;;;13.53;6.83;;;;;;;3.06;100.00;99339.65;1835798;77;21023;-63
2021/01/30 06:40:34;;;;;;;11.93;6.53;;;;;;;3.10;100.00;99337.33;1827589;78;21149;-63
2021/01/30 06:43:13;;;;;;;14.53;7.12;;;;;;;3.15;100.00;99339.39;1828221;78;21539;-63
2021/01/30 06:45:43;;;;;;;14.25;7.42;;;;;;;3.22;100.00;99329.97;1828195;78;21425;-63
2021/01/30 06:48:28;;;;;;;12.37;6.67;;;;;;;3.25;100.00;99317.96;1828115;78;21511;-63
2021/01/30 06:50:56;;;;;;;12.65;6.42;;;;;;;3.30;100.00;99314.25;1828171;78;20999;-64
2021/01/30 06:53:30;;;;;;;14.30;7.35;;;;;;;3.36;100.00;99312.36;1828157;78;20924;-63
2021/01/30 06:56:24;;;;;;;15.28;6.92;;;;;;;3.39;100.00;99305.17;1828146;78;21098;-63
2021/01/30 06:58:51;;;;;;;15.95;7.53;;;;;;;3.43;100.00;99294.92;1828140;78;21357;-63
2021/01/30 07:01:21;;;;;;;12.30;7.03;;;;;;;3.52;100.00;99288.94;1828028;78;21194;-64
2021/01/30 07:03:58;;;;;;;15.85;7.90;;;;;;;3.60;100.00;99284.73;1828336;78;21554;-64
2021/01/30 07:06:31;;;;;;;11.10;7.00;;;;;;;3.69;100.00;99280.47;1828079;78;21034;-64
2021/01/30 07:09:15;;;;;;;13.88;7.85;;;;;;;3.81;100.00;99285.86;1828226;78;21563;-66
2021/01/30 07:12:10;;;;;;;15.70;7.78;;;;;;;3.90;100.00;99280.29;1828217;78;21070;-64
2021/01/30 07:15:09;;;;;;;14.25;7.70;;;;;;;3.98;100.00;99276.92;1831249;77;20893;-64
2021/01/30 07:18:13;;;;;;;15.45;7.08;;;;;;;4.06;100.00;99271.83;1831368;78;20939;-64
2021/01/30 07:21:10;;;;;;;12.00;6.95;;;;;;;4.15;100.00;99268.90;1831365;78;21110;-64
2021/01/30 07:23:50;;;;;;;12.60;6.55;;;;;;;4.23;100.00;99269.50;1830903;77;21161;-64
2021/01/30 07:26:36;;;;;;;18.98;6.40;;;;;;;4.33;100.00;99267.89;1830802;78;21737;-63
2021/01/30 07:29:34;;;;;;;12.13;6.53;;;;;;;4.40;100.00;99264.11;1830642;77;20941;-63
2021/01/30 07:32:11;;;;;;;14.13;7.28;;;;;;;4.48;100.00;99268.69;1830724;78;20995;-64
2021/01/30 07:35:01;;;;;;;13.45;6.72;;;;;;;4.54;100.00;99264.52;1830867;78;21093;-63
2021/01/30 07:37:45;;;;;;;13.90;6.55;;;;;;;4.62;100.00;99258.92;1835684;77;21012;-62
2021/01/30 07:40:19;;;;;;;10.43;6.67;;;;;;;4.71;100.00;99253.76;1849506;77;21279;-62
2021/01/30 07:43:26;;;;;;;16.05;7.30;;;;;;;4.81;100.00;99259.17;1849059;77;21028;-63
2021/01/30 07:46:05;;;;;;;14.63;7.30;;;;;;;4.88;100.00;99263.81;1849359;77;20989;-62
2021/01/30 07:48:48;;;;;;;11.85;6.72;;;;;;;4.94;100.00;99259.59;1849279;77;21066;-62
2021/01/30 07:51:26;;;;;;;14.53;6.72;;;;;;;4.98;100.00;99253.72;1849244;77;21085;-62
2021/01/30 07:53:53;;;;;;;14.23;5.85;;;;;;;5.02;100.00;99259.33;1849403;77;21400;-62
2021/01/30 07:56:35;;;;;;;13.65;6.35;;;;;;;5.06;100.00;99258.29;1849248;77;21013;-62
2021/01/30 07:59:45;;;;;;;10.55;5.95;;;;;;;5.09;100.00;99254.19;1849236;77;21048;-62
2021/01/30 08:02:56;;;;;;;12.50;6.42;;;;;;;5.14;100.00;99257.53;1849389;77;21059;-61
2021/01/30 08:06:02;;;;;;;12.18;6.67;;;;;;;5.16;100.00;99251.70;1849277;77;21052;-62
2021/01/30 08:09:08;;;;;;;17.17;6.65;;;;;;;5.18;100.00;99256.97;1849334;77;21368;-63
2021/01/30 08:11:41;;;;;;;10.00;5.70;;;;;;;5.23;100.00;99251.50;1849254;77;20929;-63
2021/01/30 08:14:37;;;;;;;15.68;6.08;;;;;;;5.25;100.00;99257.14;1846319;77;21021;-62
2021/01/30 08:17:17;;;;;;;;;;;;;;;5.27;100.00;99258.42;1756037;81;21105;-63
2021/01/30 08:20:11;;;;;;;10.78;5.15;;;;;;;5.30;100.00;99243.70;1760528;80;20209;-63
2021/01/30 08:22:47;;;;;;;12.68;6.08;;;;;;;5.32;100.00;99248.97;1795452;80;21247;-63
2021/01/30 08:25:56;;;;;;;13.20;5.70;;;;;;;5.35;100.00;99252.36;1795488;80;20908;-63
2021/01/30 08:28:35;;;;;;;13.43;6.15;;;;;;;5.38;100.00;99250.91;1795523;79;20920;-62
2021/01/30 08:31:03;;;;;;;8.80;5.30;;;;;;;5.43;100.00;99244.09;1795561;80;21519;-63
2021/01/30 08:34:02;;;;;;;10.65;4.62;;;;;;;5.50;100.00;99239.42;1777981;80;21150;-62
2021/01/30 08:36:39;;;;;;;9.13;5.12;;;;;;;5.58;100.00;99242.63;1795394;80;21342;-62
2021/01/30 08:39:27;;;;;;;10.50;4.55;;;;;;;5.64;100.00;99237.10;1762278;80;21152;-62
2021/01/30 08:42:18;;;;;;;10.70;4.37;;;;;;;5.68;100.00;99229.41;1760561;81;21117;-61
2021/01/30 08:44:55;;;;;;;9.63;4.30;;;;;;;5.72;100.00;99230.13;1751226;80;21071;-59
2021/01/30 08:47:30;;;;;;;11.65;4.20;;;;;;;5.75;100.00;99224.72;1760547;81;21129;-60
2021/01/30 08:50:27;;;;;;;14.10;4.30;;;;;;;5.85;100.00;99219.42;1873105;76;22376;-60
2021/01/30 08:53:12;;;;;;;12.47;4.12;;;;;;;5.85;100.00;99221.20;1840982;77;20910;-59
2021/01/30 08:55:48;;;;;;;9.23;3.60;;;;;;;5.89;100.00;99217.52;1841139;78;21679;-60
2021/01/30 08:58:39;;;;;;;5.50;3.55;;;;;;;5.92;100.00;99217.38;1841008;78;20957;-59
2021/01/30 09:01:24;;;;;;;12.95;4.33;;;;;;;5.95;100.00;99217.25;1841124;78;21032;-60
2021/01/30 09:03:55;;;;;;;;;;;;;;;5.97;100.00;99212.73;1830521;78;21021;-60
2021/01/30 09:06:48;;;;;;;;;;;;;;;6.01;100.00;99205.05;1843925;78;20119;-60
2021/01/30 09:09:17;;;;;;;;;;;;;;;6.06;100.00;99200.00;1843901;78;21188;-60
2021/01/30 09:11:52;;;;;;;;;;;;;;;6.10;100.00;99196.31;1843730;78;20123;-60
2021/01/30 09:14:22;;;;;;;;;;;;;;;6.10;100.00;99193.66;1843883;78;20103;-60
2021/01/30 09:16:53;;;;;;;;;;;;;;;6.09;100.00;99188.78;1843951;78;20509;-59
2021/01/30 09:19:41;;;;;;;;;;;;;;;6.08;100.00;99188.83;1843886;78;20242;-59
2021/01/30 09:22:18;;;;;;;;;;;;;;;6.04;100.00;99184.13;1843770;78;21696;-59
2021/01/30 09:25:13;;;;;;;;;;;;;;;5.99;100.00;99180.28;1843789;78;20142;-60
2021/01/30 09:28:04;;;;;;;;;;;;;;;5.99;100.00;99181.61;1843938;78;21080;-60
2021/01/30 09:30:37;;;;;;;;;;;;;;;6.00;100.00;99174.03;1843737;77;20150;-59
2021/01/30 09:33:13;;;;;;;;;;;;;;;6.02;100.00;99166.88;1843896;78;20214;-58
2021/01/30 09:35:42;;;;;;;;;;;;;;;6.06;100.00;99166.75;1843749;78;21366;-59
2021/01/30 09:38:23;;;;;;;;;;;;;;;6.09;100.00;99161.33;1836574;77;20242;-59
2021/01/30 09:41:11;;;;;;;;;;;;;;;6.12;100.00;99166.52;1830886;78;20127;-60
2021/01/30 09:43:38;;;;;;;;;;;;;;;6.11;100.00;99162.13;1830862;78;20218;-59
2021/01/30 09:46:07;;;;;;;;;;;;;;;6.11;100.00;99164.30;1830961;77;20210;-60
2021/01/30 09:48:36;;;;;;;;;;;;;;;6.10;100.00;99163.05;1831563;77;21186;-58
2021/01/30 09:51:05;;;;;;;;;;;;;;;6.09;100.00;99161.33;1834095;78;20126;-59
2021/01/30 09:53:36;;;;;;;;;;;;;;;6.11;100.00;99166.97;1834036;78;20130;-59
2021/01/30 09:56:11;;;;;;;;;;;;;;;6.13;100.00;99158.94;1834177;78;20181;-59
2021/01/30 09:58:39;;;;;;;;;;;;;;;6.15;100.00;99155.73;1834059;78;20210;-59
2021/01/30 10:01:08;;;;;;;;;;;;;;;6.15;100.00;99155.73;1833602;78;22256;-59
2021/01/30 10:03:39;;;;;;;;;;;;;;;6.14;100.00;99152.67;1833461;78;20623;-59
2021/01/30 10:06:27;;;;;;;;;;;;;;;6.15;100.00;99161.06;1833590;78;20476;-58
2021/01/30 10:09:14;;;;;;;;;;;;;;;6.13;100.00;99149.62;1833580;78;20484;-59
2021/01/30 10:11:45;;;;;;;;;;;;;;;6.15;100.00;99161.91;1833368;77;20130;-58
2021/01/30 10:14:15;;;;;;;;;;;;;;;6.19;100.00;99157.33;1833521;78;21359;-58
2021/01/30 10:16:43;;;;;;;;;;;;;;;6.24;100.00;99154.00;1833502;78;20178;-58
2021/01/30 10:19:25;;;;;;;;;;;;;;;6.28;100.00;99162.73;1833537;78;20222;-58
2021/01/30 10:21:52;;;;;;;;;;;;;;;6.30;100.00;99153.77;1833484;78;20155;-58
2021/01/30 10:24:28;;;;;;;;;;;;;;;6.34;100.00;99158.95;1833509;78;20165;-60
2021/01/30 10:27:12;;;;;;;;;;;;;;;6.36;100.00;99146.44;1833481;78;21288;-59
2021/01/30 10:29:39;;;;;;;;;;;;;;;6.40;100.00;99152.02;1832153;77;20266;-59
2021/01/30 10:32:13;;;;;;;;;;;;;;;6.43;100.00;99166.07;1833532;77;20182;-58
2021/01/30 10:34:47;;;;;;;;;;;;;;;6.45;100.00;99163.33;1833524;78;20554;-58
2021/01/30 10:37:17;;;;;;;;;;;;;;;6.49;100.00;99168.91;1832385;77;20210;-58
2021/01/30 10:40:01;;;;;;;;;;;;;;;6.50;100.00;99169.79;1852015;77;20283;-59
2021/01/30 10:42:29;;;;;;;;;;;;;;;6.47;100.00;99164.13;1851934;77;20147;-58
2021/01/30 10:45:03;;;;;;;;;;;;;;;6.45;100.00;99162.00;1852089;77;20127;-58
2021/01/30 10:47:30;;;;;;;;;;;;;;;6.42;100.00;99157.69;1852003;77;20265;-58
2021/01/30 10:50:14;;;;;;;;;;;;;;;6.41;100.00;99151.97;1840429;77;20229;-58
2021/01/30 10:52:42;;;;;;;;;;;;;;;6.42;100.00;99156.36;1834899;77;21374;-58
2021/01/30 10:55:31;;;;;;;;;;;;;;;6.43;100.00;99157.20;1834870;78;20150;-58
2021/01/30 10:58:16;;;;;;;;;;;;;;;6.47;100.00;99152.63;1835064;78;20489;-58
2021/01/30 11:00:47;;;;;;;;;;;;;;;6.50;100.00;99143.16;1834905;78;20150;-59
2021/01/30 11:03:23;;;;;;;;;;;;;;;6.55;100.00;99150.48;1830474;77;20285;-58
2021/01/30 11:05:54;;;;;;;;;;;;;;;6.55;100.00;99152.69;1834863;78;21350;-59
2021/01/30 11:08:29;;;;;;;;;;;;;;;6.56;100.00;99142.44;1834905;77;20123;-58
2021/01/30 11:11:01;;;;;;;;;;;;;;;6.56;100.00;99137.11;1834948;77;20202;-58
2021/01/30 11:13:31;;;;;;;;;;;;;;;6.57;100.00;99139.29;1834939;78;20497;-58
2021/01/30 11:16:20;;;;;;;;;;;;;;;6.58;100.00;99133.91;1834946;78;20489;-59
2021/01/30 11:18:48;;;;;;;;;;;;;;;6.61;100.00;99138.70;1834865;78;21476;-59
2021/01/30 11:21:30;;;;;;;;;;;;;;;6.66;100.00;99140.23;1834828;78;20218;-59
2021/01/30 11:23:59;;;;;;;;;;;;;;;6.71;100.00;99130.68;1834954;77;20477;-59
2021/01/30 11:26:36;;;;;;;;;;;;;;;6.76;100.00;99138.02;1834904;78;20147;-59
2021/01/30 11:29:06;;;;;;;;;;;;;;;6.80;100.00;99140.06;1834385;77;20217;-58
2021/01/30 11:31:36;;;;;;;;;;;;;;;6.82;100.00;99144.39;1834967;78;21320;-60
2021/01/30 11:34:04;;;;;;;;;;;;;;;6.82;100.00;99142.18;1834867;78;20630;-60
2021/01/30 11:36:31;;;;;;;;;;;;;;;6.78;100.00;99141.48;1834886;77;20221;-61
2021/01/30 11:39:01;;;;;;;;;;;;;;;6.73;100.00;99127.03;1833242;78;20127;-61
2021/01/30 11:41:29;;;;;;;;;;;;;;;6.70;100.00;99130.28;1833194;78;20486;-60
2021/01/30 11:43:57;;;;;;;;;;;;;;;6.68;100.00;99132.16;1833123;78;21240;-60
2021/01/30 11:46:24;;;;;;;;;;;;;;;6.67;100.00;99135.75;1833060;78;20126;-61
2021/01/30 11:48:51;;;;;;;;;;;;;;;6.62;100.00;99137.28;1832993;78;20143;-60
2021/01/30 11:51:25;;;;;;;;;;;;;;;6.56;100.00;99125.13;1833165;78;20158;-61
2021/01/30 11:53:53;;;;;;;;;;;;;;;6.51;100.00;99123.11;1833190;77;20221;-60
2021/01/30 11:56:21;;;;;;;;;;;;;;;6.45;100.00;99121.61;1833000;78;21367;-60
2021/01/30 11:58:48;;;;;;;;;;;;;;;6.42;100.00;99118.20;1833061;78;20154;-60
2021/01/30 12:01:15;;;;;;;;;;;;;;;6.38;100.00;99109.97;1833093;78;20130;-60
2021/01/30 12:03:43;;;;;;;;;;;;;;;6.36;100.00;99114.49;1833095;77;20213;-59
2021/01/30 12:06:10;;;;;;;;;;;;;;;6.34;100.00;99116.36;1833112;78;20107;-61
2021/01/30 12:08:38;;;;;;;;;;;;;;;6.32;100.00;99097.78;1833053;78;21542;-60
2021/01/30 12:11:06;;;;;;;;;;;;;;;6.32;100.00;99102.26;1833035;78;20127;-60
2021/01/30 12:13:33;;;;;;;;;;;;;;;6.30;100.00;99100.53;1833061;78;20154;-61
2021/01/30 12:16:00;;;;;;;;;;;;;;;6.32;100.00;99099.59;1833126;78;20103;-61
2021/01/30 12:18:29;;;;;;;;;;;;;;;6.33;100.00;99103.98;1833106;78;20237;-62
2021/01/30 12:20:56;;;;;;;;;;;;;;;6.34;100.00;99103.05;1833198;78;21387;-62
2021/01/30 12:23:23;;;;;;;;;;;;;;;6.32;100.00;99103.11;1833093;78;20173;-62
2021/01/30 12:25:50;;;;;;;;;;;;;;;6.30;100.00;99105.86;1833189;78;20213;-62
2021/01/30 12:28:20;;;;;;;;;;;;;;;6.28;100.00;99096.20;1833055;78;20194;-62
2021/01/30 12:30:47;;;;;;;;;;;;;;;6.27;100.00;99103.30;1833199;77;20508;-62